createdAt,value
2018-11-22T00:01:24.465Z,6.40
2018-11-22T00:06:49.513Z,6.20
2018-11-22T00:09:29.591Z,6.10
2018-11-22T00:12:09.984Z,6.20
2018-11-22T00:17:35.226Z,6.20
2018-11-22T00:20:15.440Z,6.60
2018-11-22T00:25:41.038Z,6.40
2018-11-22T00:31:06.210Z,6.20
2018-11-22T00:33:47.837Z,5.70
2018-11-22T00:39:13.305Z,6.70
2018-11-22T00:44:38.316Z,6.20
2018-11-22T00:50:03.460Z,6.20
2018-11-22T00:55:32.192Z,6.20
2018-11-22T01:00:56.955Z,6.10
2018-11-22T01:03:37.015Z,6.00
2018-11-22T01:09:02.571Z,6.30
2018-11-22T01:14:28.713Z,6.00
2018-11-22T01:19:53.986Z,6.10
2018-11-22T01:25:19.430Z,7.10
2018-11-22T01:27:59.895Z,6.30
2018-11-22T01:30:39.985Z,6.10
2018-11-22T01:33:20.386Z,6.20
2018-11-22T01:38:45.791Z,5.60
2018-11-22T01:44:10.774Z,5.80
2018-11-22T01:49:35.576Z,6.10
2018-11-22T01:52:15.772Z,5.10
2018-11-22T01:54:56.037Z,6.20
2018-11-22T02:00:21.342Z,5.50
2018-11-22T02:05:46.576Z,6.10
2018-11-22T02:11:12.079Z,6.60
2018-11-22T02:16:36.997Z,6.20
2018-11-22T02:19:17.797Z,6.10
2018-11-22T02:21:57.967Z,6.60
2018-11-22T02:24:38.896Z,6.70
2018-11-22T02:27:19.129Z,6.20
2018-11-22T02:32:44.896Z,6.10
2018-11-22T02:38:10.109Z,6.20
2018-11-22T02:40:51.609Z,6.20
2018-11-22T02:43:32.028Z,6.20
2018-11-22T02:46:12.665Z,6.30
2018-11-22T02:51:38.371Z,5.60
2018-11-22T02:54:18.718Z,6.20
2018-11-22T02:56:59.334Z,7.00
2018-11-22T02:59:39.481Z,6.20
2018-11-22T03:05:04.267Z,6.10
2018-11-22T03:10:29.079Z,6.60
2018-11-22T03:13:09.320Z,6.30
2018-11-22T03:15:49.327Z,5.60
2018-11-22T03:18:29.891Z,6.10
2018-11-22T03:21:10.005Z,6.10
2018-11-22T03:26:34.782Z,6.10
2018-11-22T03:29:15.074Z,6.10
2018-11-22T03:31:55.346Z,6.30
2018-11-22T03:37:20.250Z,6.90
2018-11-22T03:42:45.384Z,5.80
2018-11-22T03:45:26.146Z,6.40
2018-11-22T03:48:07.418Z,6.10
2018-11-22T03:50:47.446Z,6.10
2018-11-22T03:53:27.806Z,6.10
2018-11-22T03:56:07.912Z,6.50
2018-11-22T03:58:48.733Z,6.30
2018-11-22T04:01:29.448Z,6.10
2018-11-22T04:06:54.455Z,6.10
2018-11-22T04:12:19.655Z,6.10
2018-11-22T04:17:45.157Z,6.60
2018-11-22T04:20:26.920Z,6.20
2018-11-22T04:23:07.191Z,6.00
2018-11-22T04:25:47.377Z,5.30
2018-11-22T04:28:27.787Z,6.10
2018-11-22T04:33:53.027Z,6.10
2018-11-22T04:39:18.204Z,6.00
2018-11-22T04:44:42.985Z,5.80
2018-11-22T04:50:08.305Z,6.00
2018-11-22T12:15:59.241Z,7.30
2018-11-22T12:18:26.787Z,7.30
2018-11-22T12:20:54.514Z,7.30
2018-11-22T12:23:22.065Z,7.30
2018-11-22T12:25:49.590Z,7.40
2018-11-22T12:28:17.204Z,7.30
2018-11-22T12:30:44.726Z,7.40
2018-11-22T12:33:19.624Z,7.40
2018-11-22T12:35:54.350Z,7.30
2018-11-22T12:38:27.528Z,7.30
2018-11-22T12:40:55.108Z,7.30
2018-11-22T12:43:22.784Z,7.30
2018-11-22T12:45:50.289Z,7.40
2018-11-22T12:48:17.992Z,7.40
2018-11-22T12:50:45.506Z,7.40
2018-11-22T12:53:13.152Z,7.50
2018-11-22T12:55:40.714Z,7.50
2018-11-22T12:58:08.374Z,7.50
2018-11-22T13:00:35.934Z,7.40
2018-11-22T13:03:03.659Z,7.50
2018-11-22T13:05:31.218Z,7.50
2018-11-22T13:07:58.719Z,7.50
2018-11-22T13:10:26.344Z,7.50
2018-11-22T13:12:53.901Z,7.50
2018-11-22T13:15:22.057Z,7.50
2018-11-22T13:17:49.597Z,7.50
2018-11-22T13:20:18.616Z,7.50
2018-11-22T13:22:46.156Z,7.50
2018-11-22T13:25:15.269Z,7.50
2018-11-22T13:27:43.030Z,7.50
2018-11-22T13:30:14.301Z,7.40
2018-11-22T13:32:42.344Z,7.40
2018-11-22T13:35:10.893Z,7.50
2018-11-22T13:37:38.737Z,7.40
2018-11-22T13:40:08.114Z,7.30
2018-11-22T13:42:35.775Z,7.40
2018-11-22T13:45:07.973Z,7.40
2018-11-22T13:47:35.673Z,7.40
2018-11-22T13:50:03.973Z,7.40
2018-11-22T13:52:37.148Z,7.40
2018-11-22T13:54:59.110Z,7.40
2018-11-22T13:57:26.813Z,7.40
2018-11-22T13:59:58.181Z,7.40
2018-11-22T14:02:21.962Z,7.40
2018-11-22T14:04:49.474Z,7.30
2018-11-22T14:07:17.124Z,7.30
2018-11-22T14:09:44.657Z,7.40
2018-11-22T14:12:12.266Z,7.40
2018-11-22T14:14:40.053Z,7.40
2018-11-22T14:17:07.630Z,7.40
2018-11-22T14:19:35.296Z,7.30
2018-11-22T14:22:02.844Z,7.40
2018-11-22T14:24:30.405Z,7.40
2018-11-22T14:26:58.004Z,7.40
2018-11-22T14:29:25.499Z,7.30
2018-11-22T14:31:53.177Z,7.30
2018-11-22T14:34:20.719Z,7.30
2018-11-22T14:36:48.282Z,7.40
2018-11-22T14:39:15.836Z,7.30
2018-11-22T14:41:43.424Z,7.30
2018-11-22T14:44:10.949Z,7.30
2018-11-22T14:46:38.472Z,7.20
2018-11-22T14:49:06.192Z,7.20
2018-11-22T14:51:38.929Z,7.20
2018-11-22T14:54:06.613Z,7.30
2018-11-22T14:56:34.141Z,7.20
2018-11-22T14:59:01.664Z,7.20
2018-11-22T15:01:29.204Z,7.20
2018-11-22T15:03:56.728Z,7.30
2018-11-22T15:06:24.325Z,7.20
2018-11-22T15:08:51.846Z,7.30
2018-11-22T15:11:19.525Z,7.20
2018-11-22T15:13:47.067Z,7.30
2018-11-22T15:16:14.713Z,7.20
2018-11-22T15:18:42.229Z,7.20
2018-11-22T15:21:09.834Z,7.30
2018-11-22T15:23:37.538Z,7.30
2018-11-22T15:26:05.148Z,7.30
2018-11-22T15:28:32.719Z,7.30
2018-11-22T15:31:00.414Z,7.20
2018-11-22T15:33:27.956Z,7.20
2018-11-22T15:35:55.501Z,7.20
2018-11-22T15:38:23.147Z,7.30
2018-11-22T15:40:50.722Z,7.20
2018-11-22T15:43:18.400Z,7.30
2018-11-22T15:45:45.924Z,7.20
2018-11-22T15:48:13.493Z,7.20
2018-11-22T15:50:41.125Z,7.20
2018-11-22T15:53:09.656Z,7.20
2018-11-22T15:55:37.261Z,7.20
2018-11-22T15:58:05.465Z,7.20
2018-11-22T16:00:33.792Z,7.10
2018-11-22T16:03:01.940Z,7.20
2018-11-22T16:05:29.949Z,7.20
2018-11-22T16:07:57.472Z,7.20
2018-11-22T16:10:27.225Z,7.20
2018-11-22T16:12:56.499Z,7.20
2018-11-22T16:15:26.194Z,7.20
2018-11-22T16:17:53.832Z,7.20
2018-11-22T16:20:21.355Z,7.20
2018-11-22T16:22:48.920Z,7.20
2018-11-22T16:25:16.612Z,7.10
2018-11-22T16:27:44.174Z,7.20
2018-11-22T16:30:15.355Z,7.10
2018-11-22T16:32:43.222Z,7.10
2018-11-22T16:35:12.433Z,7.10
2018-11-22T16:37:40.083Z,7.10
2018-11-22T16:40:09.897Z,7.10
2018-11-22T16:42:38.053Z,7.10
2018-11-22T16:45:11.032Z,7.10
2018-11-22T16:47:38.567Z,7.10
2018-11-22T16:50:07.316Z,7.20
2018-11-22T16:52:34.844Z,7.20
2018-11-22T16:55:02.369Z,7.20
2018-11-22T16:57:30.047Z,7.10
2018-11-22T16:59:57.633Z,7.10
2018-11-22T17:02:25.244Z,7.10
2018-11-22T17:04:52.778Z,7.10
2018-11-22T17:07:20.487Z,7.10
2018-11-22T17:09:48.019Z,7.10
2018-11-22T17:12:15.607Z,7.00
2018-11-22T17:14:43.165Z,7.00
2018-11-22T17:17:10.854Z,7.10
2018-11-22T17:19:38.388Z,7.10
2018-11-22T17:22:05.925Z,7.10
2018-11-22T17:24:33.453Z,7.10
2018-11-22T17:27:01.115Z,7.10
2018-11-22T17:29:28.787Z,7.10
2018-11-22T17:31:56.300Z,7.10
2018-11-22T17:34:23.974Z,7.00
2018-11-22T17:36:51.546Z,7.10
2018-11-22T17:39:19.092Z,7.10
2018-11-22T17:41:46.648Z,7.10
2018-11-22T17:44:14.355Z,7.10
2018-11-22T17:46:41.904Z,7.10
2018-11-22T17:49:09.604Z,7.00
2018-11-22T17:51:37.128Z,7.00
2018-11-22T17:54:05.417Z,7.00
2018-11-22T17:56:33.037Z,7.10
2018-11-22T17:59:00.591Z,7.10
2018-11-22T18:01:28.285Z,7.00
2018-11-22T18:03:55.822Z,7.10
2018-11-22T18:06:23.437Z,7.10
2018-11-22T18:08:50.987Z,7.10
2018-11-22T18:11:18.532Z,7.10
2018-11-22T18:13:46.125Z,7.10
2018-11-22T18:16:13.741Z,7.10
2018-11-22T18:18:41.439Z,7.10
2018-11-22T18:21:08.973Z,7.00
2018-11-22T18:23:36.794Z,7.00
2018-11-22T18:26:04.908Z,7.10
2018-11-22T18:28:32.489Z,7.10
2018-11-22T18:31:00.073Z,7.10
2018-11-22T18:33:27.772Z,7.10
2018-11-22T18:35:55.340Z,7.10
2018-11-22T18:38:23.028Z,7.10
2018-11-22T18:40:50.879Z,7.10
2018-11-22T18:43:18.513Z,7.10
2018-11-22T18:45:46.885Z,7.10
2018-11-22T18:48:15.702Z,7.10
2018-11-22T18:50:43.694Z,7.10
2018-11-22T18:53:11.506Z,7.10
2018-11-22T18:55:39.049Z,7.10
2018-11-22T18:58:06.781Z,7.10
2018-11-22T19:00:35.764Z,7.20
2018-11-22T19:03:05.312Z,7.20
2018-11-22T19:05:32.891Z,7.20
2018-11-22T19:08:00.801Z,7.20
2018-11-22T19:10:29.687Z,7.20
2018-11-22T19:12:59.696Z,7.20
2018-11-22T19:15:28.513Z,7.20
2018-11-22T19:17:56.064Z,7.10
2018-11-22T19:20:30.101Z,7.20
2018-11-22T19:22:58.288Z,7.10
2018-11-22T19:25:25.839Z,7.10
2018-11-22T19:27:53.864Z,7.10
2018-11-22T19:30:25.768Z,7.10
2018-11-22T19:32:54.477Z,7.10
2018-11-22T19:35:23.564Z,7.10
2018-11-22T19:37:51.370Z,7.10
2018-11-22T19:40:23.116Z,7.10
2018-11-22T19:42:51.977Z,7.10
2018-11-22T19:45:20.885Z,7.10
2018-11-22T19:47:48.838Z,7.10
2018-11-22T19:50:17.940Z,7.10
2018-11-22T19:52:46.221Z,7.20
2018-11-22T19:55:15.500Z,7.20
2018-11-22T19:57:44.179Z,7.10
2018-11-22T20:00:12.777Z,7.20
2018-11-22T20:02:41.060Z,7.20
2018-11-22T20:05:10.279Z,7.30
2018-11-22T20:07:37.834Z,7.20
2018-11-22T20:10:08.253Z,7.20
2018-11-22T20:12:35.838Z,7.20
2018-11-22T20:15:03.755Z,7.20
2018-11-22T20:17:31.269Z,7.10
2018-11-22T20:19:58.809Z,7.10
2018-11-22T20:22:26.357Z,7.00
2018-11-22T20:24:53.886Z,7.00
2018-11-22T20:29:51.298Z,6.90
2018-11-22T20:32:18.875Z,6.90
2018-11-22T20:34:46.498Z,6.90
2018-11-22T20:37:14.029Z,6.80
2018-11-22T20:39:41.579Z,6.80
2018-11-22T20:42:09.196Z,6.80
2018-11-22T20:44:36.745Z,6.70
2018-11-22T20:47:04.448Z,6.70
2018-11-22T20:49:32.000Z,6.70
2018-11-22T20:51:59.574Z,6.60
2018-11-22T20:54:27.167Z,6.60
2018-11-22T20:56:54.787Z,6.60
2018-11-22T20:59:22.447Z,6.60
2018-11-22T21:01:51.749Z,6.60
2018-11-22T21:04:17.744Z,6.60
2018-11-22T21:06:45.273Z,6.60
2018-11-22T21:09:12.850Z,6.50
2018-11-22T21:11:43.483Z,6.50
2018-11-22T21:14:08.622Z,6.40
2018-11-22T21:16:36.313Z,6.40
2018-11-22T21:19:03.848Z,6.40
2018-11-22T21:21:31.461Z,6.30
2018-11-22T21:23:59.129Z,6.30
2018-11-22T21:26:26.713Z,6.40
2018-11-22T21:28:54.470Z,6.40
2018-11-22T21:31:22.037Z,6.40
2018-11-22T21:33:49.596Z,6.40
2018-11-22T21:36:17.244Z,6.30
2018-11-22T21:38:44.801Z,6.30
2018-11-22T21:41:12.453Z,6.20
2018-11-22T21:43:40.019Z,6.20
2018-11-22T21:46:07.632Z,6.20
2018-11-22T21:48:35.292Z,6.10
2018-11-22T21:51:02.828Z,6.00
2018-11-22T21:53:30.357Z,6.00
2018-11-22T21:55:58.257Z,6.00
2018-11-22T21:58:25.769Z,6.10
2018-11-22T22:00:53.416Z,6.00
2018-11-22T22:03:20.940Z,6.00
2018-11-22T22:05:48.486Z,6.00
2018-11-22T22:08:16.117Z,5.90
2018-11-22T22:10:43.818Z,6.00
2018-11-22T22:13:11.534Z,6.00
2018-11-22T22:15:39.124Z,6.00
2018-11-22T22:18:07.559Z,6.00
2018-11-22T22:20:35.900Z,6.00
2018-11-22T22:23:03.475Z,6.00
2018-11-22T22:25:31.224Z,6.00
2018-11-22T22:27:59.285Z,6.00
2018-11-22T22:30:28.249Z,6.00
2018-11-22T22:32:57.178Z,6.00
2018-11-22T22:35:24.766Z,5.90
2018-11-22T22:37:52.462Z,5.90
2018-11-22T22:40:24.894Z,5.90
2018-11-22T22:42:53.689Z,5.90
2018-11-22T22:45:22.456Z,5.90
2018-11-22T22:47:50.511Z,5.90
2018-11-22T22:50:19.491Z,5.80
2018-11-22T22:52:48.112Z,5.80
2018-11-22T22:55:15.645Z,5.90
2018-11-22T22:57:43.536Z,5.80
2018-11-22T23:00:20.316Z,5.70
2018-11-22T23:02:49.307Z,5.70
2018-11-22T23:05:16.983Z,5.70
2018-11-22T23:07:44.593Z,5.60
2018-11-22T23:10:12.319Z,5.60
2018-11-22T23:12:39.882Z,5.50
2018-11-22T23:15:09.772Z,5.50
2018-11-22T23:17:37.856Z,5.50
2018-11-22T23:20:07.755Z,5.50
2018-11-22T23:22:35.336Z,5.50
2018-11-22T23:25:03.187Z,5.60
2018-11-22T23:27:31.278Z,5.50
2018-11-22T23:29:58.925Z,5.50
2018-11-22T23:32:26.645Z,5.40
2018-11-22T23:34:54.323Z,5.40
2018-11-22T23:37:22.332Z,5.40
2018-11-22T23:39:50.011Z,5.40
2018-11-22T23:42:17.599Z,5.40
2018-11-22T23:44:45.229Z,5.40
2018-11-22T23:47:12.801Z,5.40
2018-11-22T23:49:40.412Z,5.40
2018-11-22T23:52:08.014Z,5.40
2018-11-22T23:54:35.613Z,5.40
2018-11-22T23:57:03.185Z,5.40
2018-11-22T23:59:30.776Z,5.40
